Terminal Aerodrome Forecast
Issued by NWS

Home | Current Version | Previous Version | Text Only | Print | Product List | Glossary On
Versions: 1 2 3 4 5 6 7 8 9 10 11 12 13 14 15 16 17
000
FTUS44 KLZK 211139
TAFPBF
TAF
KPBF 211139Z 2112/2212 18011G20KT P6SM OVC012 WS020/19040KT
      TEMPO 2112/2115 4SM -DZ BR OVC008
     FM211500 18010G18KT P6SM SCT008 OVC015
     FM211800 18011G20KT P6SM VCSH OVC025
     FM220000 18012G22KT 5SM -SHRA BR OVC025
      TEMPO 2203/2207 2SM TSRA BR OVC015CB=

USA.gov is the U.S. government's official web portal to all federal, state and local government web resources and services.